createdAt,value
2018-06-08T00:00:34.240Z,33.97
2018-06-08T00:03:02.835Z,36.50
2018-06-08T00:05:31.300Z,39.50
2018-06-08T00:07:59.813Z,38.67
2018-06-08T00:10:28.296Z,38.70
2018-06-08T00:12:56.760Z,35.33
2018-06-08T00:15:25.272Z,41.50
2018-06-08T00:17:53.752Z,43.73
2018-06-08T00:20:22.261Z,40.27
2018-06-08T00:22:50.776Z,38.07
2018-06-08T00:25:19.355Z,50.67
2018-06-08T00:27:47.857Z,38.90
2018-06-08T00:30:16.369Z,41.97
2018-06-08T00:32:44.837Z,41.50
2018-06-08T00:35:13.332Z,44.47
2018-06-08T00:37:41.985Z,43.30
2018-06-08T00:40:10.485Z,44.23
2018-06-08T00:42:38.965Z,46.63
2018-06-08T00:45:07.448Z,42.20
2018-06-08T00:47:35.997Z,39.03
2018-06-08T00:50:04.657Z,47.77
2018-06-08T00:52:33.303Z,43.13
2018-06-08T00:55:01.814Z,43.47
2018-06-08T00:57:30.376Z,44.77
2018-06-08T00:59:58.877Z,45.07
2018-06-08T01:02:27.368Z,48.93
2018-06-08T01:04:55.872Z,41.43
2018-06-08T01:07:24.586Z,47.00
2018-06-08T01:09:53.120Z,45.10
2018-06-08T01:12:21.652Z,52.00
2018-06-08T01:14:50.178Z,47.83
2018-06-08T01:17:18.347Z,41.80
2018-06-08T01:19:47.093Z,39.50
2018-06-08T01:22:15.643Z,46.33
2018-06-08T01:24:44.132Z,49.97
2018-06-08T01:27:12.648Z,48.77
2018-06-08T01:29:41.144Z,52.20
2018-06-08T01:32:09.656Z,56.77
2018-06-08T01:34:38.204Z,48.30
2018-06-08T01:37:06.810Z,51.87
2018-06-08T01:39:35.267Z,52.20
2018-06-08T01:42:03.779Z,48.90
2018-06-08T01:44:32.220Z,51.03
2018-06-08T01:47:00.741Z,48.63
2018-06-08T01:49:29.245Z,54.53
2018-06-08T01:51:57.715Z,45.67
2018-06-08T01:54:26.236Z,46.60
2018-06-08T01:56:54.716Z,47.07
2018-06-08T01:59:23.845Z,48.67
2018-06-08T02:01:52.336Z,52.53
2018-06-08T02:04:20.825Z,49.37
2018-06-08T02:06:49.331Z,51.50
2018-06-08T02:09:17.840Z,52.67
2018-06-08T02:11:46.445Z,59.37
2018-06-08T02:14:14.908Z,52.10
2018-06-08T02:16:43.380Z,52.13
2018-06-08T02:19:11.843Z,54.10
2018-06-08T02:21:39.980Z,54.07
2018-06-08T02:24:08.464Z,53.60
2018-06-08T02:26:36.958Z,48.20
2018-06-08T02:29:05.448Z,55.27
2018-06-08T02:31:33.929Z,53.70
2018-06-08T02:34:02.400Z,56.53
2018-06-08T02:36:30.884Z,63.83
2018-06-08T02:38:59.364Z,54.00
2018-06-08T02:41:27.842Z,48.70
2018-06-08T02:43:56.368Z,56.47
2018-06-08T02:46:24.821Z,58.77
2018-06-08T02:48:53.293Z,54.53
2018-06-08T02:51:21.784Z,56.17
2018-06-08T02:53:50.271Z,57.43
2018-06-08T02:56:19.021Z,60.57
2018-06-08T02:58:47.587Z,55.47
2018-06-08T03:01:16.042Z,60.63
2018-06-08T03:03:44.528Z,67.13
2018-06-08T03:06:13.020Z,54.10
2018-06-08T03:08:41.523Z,50.93
2018-06-08T03:11:10.034Z,52.77
2018-06-08T03:13:38.532Z,57.50
2018-06-08T03:16:07.054Z,55.63
2018-06-08T03:18:35.542Z,53.20
2018-06-08T03:21:04.060Z,61.80
2018-06-08T03:23:32.627Z,55.13
2018-06-08T03:26:01.072Z,59.60
2018-06-08T03:28:29.605Z,62.73
2018-06-08T03:30:58.057Z,55.17
2018-06-08T03:33:26.610Z,68.73
2018-06-08T03:35:55.162Z,61.30
2018-06-08T03:38:23.688Z,62.43
2018-06-08T03:40:52.420Z,61.47
2018-06-08T03:43:20.924Z,67.70
2018-06-08T03:45:49.428Z,68.40
2018-06-08T03:48:17.904Z,72.17
2018-06-08T03:50:46.395Z,67.43
2018-06-08T03:53:14.875Z,66.83
2018-06-08T03:55:43.357Z,66.70
2018-06-08T03:58:11.893Z,73.20
2018-06-08T04:00:40.393Z,69.43
2018-06-08T04:03:08.888Z,71.30
2018-06-08T04:05:37.480Z,73.17
2018-06-08T04:08:05.952Z,79.93
2018-06-08T04:10:34.392Z,70.37
2018-06-08T04:13:02.944Z,76.23
2018-06-08T04:15:31.500Z,80.27
2018-06-08T04:17:59.951Z,77.90
2018-06-08T04:20:28.404Z,79.50
2018-06-08T04:22:56.919Z,77.30
2018-06-08T04:25:25.424Z,82.87
2018-06-08T04:27:53.949Z,91.13
2018-06-08T04:30:22.402Z,81.83
2018-06-08T04:32:50.976Z,77.30
2018-06-08T04:35:19.369Z,81.50
2018-06-08T04:37:47.843Z,87.87
2018-06-08T04:40:16.300Z,80.10
2018-06-08T04:42:44.756Z,92.37
2018-06-08T04:45:13.220Z,83.70
2018-06-08T04:47:41.696Z,84.13
2018-06-08T04:50:10.248Z,91.33
2018-06-08T04:52:38.760Z,90.40
2018-06-08T04:55:07.260Z,88.57
2018-06-08T04:57:35.784Z,86.00
2018-06-08T05:00:04.450Z,89.43
2018-06-08T05:02:32.958Z,95.27
2018-06-08T05:05:01.502Z,88.67
2018-06-08T05:07:30.087Z,104.67
2018-06-08T05:09:58.577Z,102.30
2018-06-08T05:12:27.125Z,97.97
2018-06-08T05:14:55.885Z,103.87
2018-06-08T05:17:24.472Z,96.73
2018-06-08T05:19:52.953Z,110.13
2018-06-08T05:22:21.464Z,110.37
2018-06-08T05:24:50.025Z,114.00
2018-06-08T05:27:18.519Z,107.70
2018-06-08T05:29:47.116Z,107.90
2018-06-08T05:32:15.581Z,111.20
2018-06-08T05:34:44.055Z,114.87
2018-06-08T05:37:12.582Z,126.27
2018-06-08T05:39:41.032Z,114.73
2018-06-08T05:42:09.528Z,112.70
2018-06-08T05:44:38.041Z,110.57
2018-06-08T05:47:07.280Z,103.73
2018-06-08T05:49:35.809Z,106.23
2018-06-08T05:52:04.330Z,115.70
2018-06-08T05:54:32.885Z,117.47
2018-06-08T05:57:01.352Z,122.60
2018-06-08T05:59:29.841Z,120.07
2018-06-08T06:01:58.292Z,113.20
2018-06-08T06:04:26.776Z,121.23
2018-06-08T06:06:55.240Z,117.57
2018-06-08T06:09:23.729Z,108.90
2018-06-08T06:11:52.186Z,115.97
2018-06-08T06:14:20.641Z,107.90
2018-06-08T06:16:49.140Z,128.20
2018-06-08T06:19:17.619Z,114.23
2018-06-08T06:21:46.062Z,117.20
2018-06-08T06:24:14.568Z,118.00
2018-06-08T06:26:43.031Z,119.37
2018-06-08T06:29:11.550Z,116.30
2018-06-08T06:31:40.002Z,115.10
2018-06-08T06:34:08.473Z,120.27
2018-06-08T06:36:36.913Z,107.10
2018-06-08T06:39:07.603Z,115.70
2018-06-08T06:41:36.128Z,111.53
2018-06-08T06:44:04.661Z,112.00
2018-06-08T06:46:33.166Z,118.30
2018-06-08T06:49:01.835Z,111.63
2018-06-08T06:51:30.336Z,123.53
2018-06-08T06:53:58.833Z,111.90
2018-06-08T06:56:27.340Z,117.50
2018-06-08T06:58:55.855Z,109.30
2018-06-08T07:01:24.325Z,116.83
2018-06-08T07:03:52.810Z,114.87
2018-06-08T07:06:21.247Z,106.83
2018-06-08T07:08:49.712Z,102.90
2018-06-08T07:11:18.182Z,123.03
2018-06-08T07:13:46.713Z,110.07
2018-06-08T07:16:15.200Z,114.47
2018-06-08T07:18:43.681Z,110.33
2018-06-08T07:21:12.141Z,106.30
2018-06-08T07:23:40.616Z,113.17
2018-06-08T07:26:09.118Z,103.67
2018-06-08T07:28:37.601Z,108.13
2018-06-08T07:31:06.143Z,106.53
2018-06-08T07:33:34.689Z,106.63
2018-06-08T07:36:03.213Z,111.87
2018-06-08T07:38:31.664Z,116.53
2018-06-08T07:41:00.132Z,98.67
2018-06-08T07:43:28.644Z,105.30
2018-06-08T07:45:57.161Z,100.63
2018-06-08T07:48:25.672Z,107.50
2018-06-08T07:50:54.120Z,107.90
2018-06-08T07:53:22.657Z,102.80
2018-06-08T07:55:51.176Z,110.47
2018-06-08T07:58:19.592Z,100.67
2018-06-08T08:00:48.087Z,105.70
2018-06-08T08:03:16.573Z,95.33
2018-06-08T08:05:45.629Z,107.60
2018-06-08T08:08:14.298Z,100.87
2018-06-08T08:10:42.894Z,104.83
2018-06-08T08:13:12.369Z,108.30
2018-06-08T08:15:40.835Z,93.73
2018-06-08T08:18:09.662Z,100.30
2018-06-08T08:20:38.140Z,96.73
2018-06-08T08:23:06.605Z,114.90
2018-06-08T08:25:35.140Z,101.20
2018-06-08T08:28:03.679Z,104.00
2018-06-08T08:30:32.269Z,106.43
2018-06-08T08:33:00.720Z,98.33
2018-06-08T08:35:29.302Z,90.00
2018-06-08T08:37:57.853Z,109.47
2018-06-08T08:40:26.332Z,96.63
2018-06-08T08:42:54.814Z,107.73
2018-06-08T08:45:22.994Z,96.53
2018-06-08T08:47:51.449Z,78.53
2018-06-08T08:50:19.969Z,75.00
2018-06-08T08:52:48.411Z,84.63
2018-06-08T08:55:16.869Z,76.00
2018-06-08T08:57:45.356Z,79.33
2018-06-08T09:00:13.816Z,76.73
2018-06-08T09:02:42.267Z,65.90
2018-06-08T09:05:10.744Z,68.70
2018-06-08T09:07:39.180Z,61.43
2018-06-08T09:10:07.669Z,72.43
2018-06-08T09:12:36.156Z,80.17
2018-06-08T09:15:04.708Z,74.57
2018-06-08T09:17:33.193Z,70.60
2018-06-08T09:20:01.657Z,67.43
2018-06-08T09:22:30.139Z,77.33
2018-06-08T09:24:58.608Z,69.10
2018-06-08T09:27:27.087Z,61.73
2018-06-08T09:29:55.600Z,65.00
2018-06-08T09:32:24.044Z,64.80
2018-06-08T09:34:52.485Z,65.63
2018-06-08T09:37:20.944Z,63.67
2018-06-08T09:39:49.440Z,61.23
2018-06-08T09:42:17.924Z,58.47
2018-06-08T09:44:46.371Z,62.23
2018-06-08T09:47:14.864Z,64.57
2018-06-08T09:49:43.523Z,59.83
2018-06-08T09:52:12.000Z,57.43
2018-06-08T09:54:40.514Z,54.77
2018-06-08T09:57:08.972Z,50.60
2018-06-08T09:59:37.491Z,51.70
2018-06-08T10:02:06.039Z,51.97
2018-06-08T10:04:34.520Z,47.37
2018-06-08T10:07:03.059Z,55.57
2018-06-08T10:09:31.566Z,49.27
2018-06-08T10:12:00.051Z,53.17
2018-06-08T10:14:28.528Z,54.00
2018-06-08T10:16:57.080Z,45.87
2018-06-08T10:19:26.561Z,50.57
2018-06-08T10:21:55.054Z,52.50
2018-06-08T10:24:23.563Z,47.17
2018-06-08T10:26:52.039Z,47.70
2018-06-08T10:29:20.520Z,49.83
2018-06-08T10:31:49.022Z,53.50
2018-06-08T10:34:17.629Z,54.90
2018-06-08T10:36:46.159Z,50.93
2018-06-08T10:39:14.632Z,55.67
2018-06-08T10:41:43.192Z,57.07
2018-06-08T10:44:11.623Z,55.13
2018-06-08T10:46:40.149Z,57.77
2018-06-08T10:49:08.713Z,65.27
2018-06-08T10:51:37.212Z,62.03
2018-06-08T10:54:05.745Z,54.93
2018-06-08T10:56:34.229Z,61.07
2018-06-08T10:59:02.669Z,56.97
2018-06-08T11:01:31.172Z,56.10
2018-06-08T11:03:59.640Z,50.47
2018-06-08T11:06:28.099Z,55.10
2018-06-08T11:08:56.575Z,61.20
2018-06-08T11:11:25.137Z,64.13
2018-06-08T11:13:53.807Z,59.53
2018-06-08T11:16:22.268Z,56.47
2018-06-08T11:18:50.762Z,60.03
2018-06-08T11:21:19.291Z,53.57
2018-06-08T11:23:47.931Z,53.97
2018-06-08T11:26:16.488Z,57.97
2018-06-08T11:28:45.056Z,63.17
2018-06-08T11:31:13.562Z,59.00
2018-06-08T11:33:42.281Z,61.03
2018-06-08T11:36:10.848Z,58.47
2018-06-08T11:38:39.326Z,56.50
2018-06-08T11:41:07.841Z,48.80
2018-06-08T11:43:36.367Z,44.40
2018-06-08T11:46:05.462Z,43.43
2018-06-08T11:48:33.948Z,41.57
2018-06-08T11:51:02.425Z,42.93
2018-06-08T11:53:30.873Z,37.80
2018-06-08T11:55:59.347Z,35.70
2018-06-08T11:58:27.784Z,39.17
2018-06-08T12:00:56.256Z,37.07
2018-06-08T12:03:24.692Z,38.10
2018-06-08T12:05:53.179Z,38.23
2018-06-08T12:08:21.608Z,35.93
2018-06-08T12:10:50.092Z,35.50
2018-06-08T12:13:18.677Z,37.97
2018-06-08T12:15:47.176Z,40.50
2018-06-08T12:18:15.693Z,35.37
2018-06-08T12:20:44.233Z,34.73
2018-06-08T12:23:12.679Z,37.17
2018-06-08T12:25:41.149Z,33.03
2018-06-08T12:28:09.645Z,29.43
2018-06-08T12:30:38.138Z,26.90
2018-06-08T12:33:06.583Z,31.53
2018-06-08T12:35:35.100Z,34.47
2018-06-08T12:38:03.580Z,29.00
2018-06-08T12:40:32.023Z,25.37
2018-06-08T12:43:00.496Z,24.47
2018-06-08T12:45:28.976Z,20.27
2018-06-08T12:47:57.457Z,20.00
2018-06-08T12:50:25.965Z,20.70
2018-06-08T12:52:54.500Z,19.47
2018-06-08T12:55:23.028Z,21.73
2018-06-08T12:57:51.532Z,24.27
2018-06-08T13:00:19.962Z,19.60
2018-06-08T13:02:48.437Z,23.60
2018-06-08T13:05:16.889Z,20.30
2018-06-08T13:07:45.412Z,28.17
2018-06-08T13:10:13.900Z,23.97
2018-06-08T13:12:42.411Z,25.10
2018-06-08T13:15:10.920Z,21.23
2018-06-08T13:17:39.421Z,20.07
2018-06-08T13:20:07.952Z,21.10
2018-06-08T13:22:36.529Z,19.10
2018-06-08T13:25:05.178Z,14.97
2018-06-08T13:27:34.286Z,17.80
2018-06-08T13:30:02.760Z,16.47
2018-06-08T13:32:31.331Z,21.43
2018-06-08T13:35:00.245Z,15.50
2018-06-08T13:37:28.956Z,20.90
2018-06-08T13:39:57.556Z,15.13
2018-06-08T13:42:26.053Z,13.60
2018-06-08T13:44:54.517Z,13.23
2018-06-08T13:47:23.097Z,12.13
2018-06-08T13:49:51.668Z,14.73
2018-06-08T13:52:20.221Z,15.50
2018-06-08T13:54:48.780Z,13.30
2018-06-08T13:57:17.286Z,15.53
2018-06-08T13:59:45.837Z,13.97
2018-06-08T14:02:14.325Z,13.60
2018-06-08T14:04:42.897Z,13.20
2018-06-08T14:07:11.517Z,12.83
2018-06-08T14:09:40.036Z,14.03
2018-06-08T14:12:08.525Z,14.70
2018-06-08T14:14:37.126Z,14.77
2018-06-08T14:17:05.956Z,13.13
2018-06-08T14:19:34.497Z,15.80
2018-06-08T14:22:03.136Z,18.13
2018-06-08T14:24:31.764Z,14.50
2018-06-08T14:27:00.535Z,20.07
2018-06-08T14:29:29.258Z,18.90
2018-06-08T14:31:59.021Z,17.40
2018-06-08T14:34:27.726Z,17.37
2018-06-08T14:36:57.345Z,16.53
2018-06-08T14:39:26.722Z,15.53
2018-06-08T14:41:55.401Z,17.50
2018-06-08T14:44:24.100Z,15.63
2018-06-08T14:46:52.865Z,16.90
2018-06-08T14:49:21.189Z,16.30
2018-06-08T14:51:49.898Z,17.00
2018-06-08T14:54:18.585Z,21.43
2018-06-08T14:56:47.408Z,22.70
2018-06-08T14:59:16.141Z,18.33
2018-06-08T15:01:44.832Z,22.70
2018-06-08T15:04:13.609Z,20.83
2018-06-08T15:06:43.501Z,22.70
2018-06-08T15:09:11.858Z,20.03
2018-06-08T15:11:40.695Z,17.23
2018-06-08T15:14:09.523Z,19.67
2018-06-08T15:16:38.276Z,20.33
2018-06-08T15:19:07.809Z,20.83
2018-06-08T15:21:36.390Z,16.57
2018-06-08T15:24:05.212Z,20.30
2018-06-08T15:26:34.350Z,20.47
2018-06-08T15:29:03.017Z,20.90
2018-06-08T15:31:31.751Z,19.73
2018-06-08T15:34:00.459Z,23.53
2018-06-08T15:36:29.277Z,20.20
2018-06-08T15:38:57.914Z,18.67
2018-06-08T15:41:26.480Z,21.53
2018-06-08T15:43:55.174Z,22.40
2018-06-08T15:46:23.898Z,22.63
2018-06-08T15:48:52.666Z,22.50
2018-06-08T15:51:21.395Z,28.83
2018-06-08T15:53:50.699Z,24.70
2018-06-08T15:56:19.376Z,20.27
2018-06-08T15:58:48.027Z,22.90
2018-06-08T16:01:16.665Z,25.23
2018-06-08T16:03:45.355Z,25.17
2018-06-08T16:06:14.217Z,24.50
2018-06-08T16:08:42.960Z,22.60
2018-06-08T16:11:11.732Z,24.73
2018-06-08T16:13:40.495Z,27.03
2018-06-08T16:16:09.219Z,23.93
2018-06-08T16:18:38.664Z,25.97
2018-06-08T16:21:07.525Z,25.07
2018-06-08T16:23:36.379Z,22.43
2018-06-08T16:26:05.264Z,25.13
2018-06-08T16:28:34.037Z,21.70
2018-06-08T16:31:02.841Z,25.23
2018-06-08T16:33:31.672Z,25.90
2018-06-08T16:36:00.356Z,23.90
2018-06-08T16:38:28.918Z,27.53
2018-06-08T16:40:57.459Z,26.57
2018-06-08T16:43:26.074Z,24.47
2018-06-08T16:45:54.600Z,24.57
2018-06-08T16:48:23.177Z,22.60
2018-06-08T16:50:51.836Z,23.50
2018-06-08T16:53:20.381Z,27.63
2018-06-08T16:55:48.864Z,21.90
2018-06-08T16:58:17.391Z,24.63
2018-06-08T17:00:45.968Z,22.97
2018-06-08T17:03:14.782Z,23.83
2018-06-08T17:05:43.330Z,23.43
2018-06-08T17:08:11.846Z,25.43
2018-06-08T17:10:40.328Z,26.43
2018-06-08T17:13:08.877Z,25.67
2018-06-08T17:15:37.399Z,27.97
2018-06-08T17:18:05.992Z,24.60
2018-06-08T17:20:34.510Z,42.60
2018-06-08T17:23:03.153Z,25.00
2018-06-08T17:25:31.692Z,26.67
2018-06-08T17:28:00.228Z,26.43
2018-06-08T17:30:28.787Z,25.80
2018-06-08T17:32:57.270Z,27.53
2018-06-08T17:35:25.820Z,24.73
2018-06-08T17:37:54.344Z,29.40
2018-06-08T17:40:22.971Z,27.40
2018-06-08T17:42:51.521Z,26.23
2018-06-08T17:45:20.032Z,24.80
2018-06-08T17:47:48.539Z,26.90
2018-06-08T17:50:16.992Z,29.27
2018-06-08T17:52:45.511Z,27.73
2018-06-08T17:55:14.011Z,30.57
2018-06-08T17:57:42.542Z,30.27
2018-06-08T18:00:11.976Z,30.83
2018-06-08T18:02:40.536Z,25.20
2018-06-08T18:05:09.131Z,30.13
2018-06-08T18:07:37.644Z,31.47
2018-06-08T18:10:06.168Z,24.33
2018-06-08T18:12:34.675Z,28.17
2018-06-08T18:15:03.279Z,34.40
2018-06-08T18:17:31.795Z,27.03
2018-06-08T18:20:00.375Z,28.80
2018-06-08T18:22:28.930Z,27.67
2018-06-08T18:24:57.463Z,24.40
2018-06-08T18:27:25.996Z,28.80
2018-06-08T18:29:54.510Z,37.27
2018-06-08T18:32:23.016Z,31.03
2018-06-08T18:34:51.536Z,28.37
2018-06-08T18:37:20.055Z,30.50
2018-06-08T18:39:48.730Z,25.93
2018-06-08T18:42:17.188Z,25.97
2018-06-08T18:44:45.684Z,26.40
2018-06-08T18:47:14.300Z,27.10
2018-06-08T18:49:42.860Z,30.33
2018-06-08T18:52:11.921Z,23.60
2018-06-08T18:54:41.070Z,28.30
2018-06-08T18:57:09.553Z,27.30
2018-06-08T18:59:38.311Z,31.07
2018-06-08T19:02:07.252Z,30.47
2018-06-08T19:04:35.865Z,30.17
2018-06-08T19:07:04.506Z,24.53
2018-06-08T19:09:33.033Z,28.00
2018-06-08T19:12:01.592Z,29.03
2018-06-08T19:14:34.032Z,32.80
2018-06-08T19:17:02.671Z,26.57
2018-06-08T19:19:31.222Z,28.57
2018-06-08T19:21:59.679Z,31.03
2018-06-08T19:24:28.245Z,30.43
2018-06-08T19:26:56.824Z,30.87
2018-06-08T19:29:25.433Z,27.57
2018-06-08T19:31:54.206Z,32.93
2018-06-08T19:34:22.751Z,28.33
2018-06-08T19:36:51.316Z,30.70
2018-06-08T19:39:19.910Z,28.57
2018-06-08T19:41:48.424Z,30.67
2018-06-08T19:44:17.042Z,29.40
2018-06-08T19:46:45.545Z,30.40
2018-06-08T19:49:14.131Z,30.73
2018-06-08T19:51:42.775Z,29.23
2018-06-08T19:54:11.309Z,27.47
2018-06-08T19:56:39.785Z,28.60
2018-06-08T19:59:08.309Z,29.80
2018-06-08T20:01:36.873Z,27.30
2018-06-08T20:04:05.465Z,32.10
2018-06-08T20:06:34.034Z,25.93
2018-06-08T20:09:04.545Z,26.30
2018-06-08T20:11:33.034Z,31.87
2018-06-08T20:14:01.620Z,29.63
2018-06-08T20:16:30.147Z,33.83
2018-06-08T20:18:58.768Z,29.00
2018-06-08T20:21:27.304Z,34.43
2018-06-08T20:23:55.899Z,36.97
2018-06-08T20:26:24.512Z,37.70
2018-06-08T20:28:53.079Z,35.90
2018-06-08T20:31:21.672Z,30.77
2018-06-08T20:33:50.256Z,38.83
2018-06-08T20:36:18.797Z,40.13
2018-06-08T20:38:47.372Z,36.80
2018-06-08T20:41:15.894Z,34.60
2018-06-08T20:43:44.368Z,39.60
2018-06-08T20:46:13.516Z,37.70
2018-06-08T20:48:42.064Z,37.23
2018-06-08T20:51:10.562Z,37.10
2018-06-08T20:53:39.064Z,41.93
2018-06-08T20:56:07.621Z,43.63
2018-06-08T20:58:36.088Z,39.93
2018-06-08T21:01:04.588Z,32.30
2018-06-08T21:03:33.073Z,36.57
2018-06-08T21:06:01.557Z,36.57
2018-06-08T21:08:30.178Z,34.43
2018-06-08T21:10:58.660Z,38.20
2018-06-08T21:13:27.205Z,35.17
2018-06-08T21:15:55.701Z,35.37
2018-06-08T21:18:24.214Z,35.73
2018-06-08T21:20:52.748Z,36.50
2018-06-08T21:23:21.263Z,38.40
2018-06-08T21:25:49.768Z,39.37
2018-06-08T21:28:18.268Z,35.27
2018-06-08T21:30:46.756Z,43.73
2018-06-08T21:33:15.256Z,45.23
2018-06-08T21:35:43.743Z,47.53
2018-06-08T21:38:12.240Z,48.73
2018-06-08T21:40:40.806Z,46.73
2018-06-08T21:43:09.323Z,49.43
2018-06-08T21:45:37.836Z,41.80
2018-06-08T21:48:06.388Z,49.00
2018-06-08T21:50:34.876Z,48.53
2018-06-08T21:53:03.406Z,52.63
2018-06-08T21:55:31.982Z,53.30
2018-06-08T21:58:00.497Z,54.60
2018-06-08T22:00:29.273Z,50.00
2018-06-08T22:02:57.812Z,50.70
2018-06-08T22:05:26.835Z,52.20
2018-06-08T22:07:55.693Z,45.63
2018-06-08T22:10:24.173Z,45.47
2018-06-08T22:12:52.636Z,49.33
2018-06-08T22:15:21.116Z,52.40
2018-06-08T22:17:49.639Z,52.17
2018-06-08T22:20:18.121Z,52.77
2018-06-08T22:22:46.624Z,59.63
2018-06-08T22:25:15.128Z,56.17
2018-06-08T22:27:43.616Z,62.23
2018-06-08T22:30:12.102Z,58.77
2018-06-08T22:32:40.564Z,53.23
2018-06-08T22:35:09.079Z,56.20
2018-06-08T22:37:37.532Z,58.13
2018-06-08T22:40:06.292Z,67.93
2018-06-08T22:42:34.872Z,66.00
2018-06-08T22:45:03.436Z,65.87
2018-06-08T22:47:31.946Z,64.90
2018-06-08T22:50:00.418Z,66.40
2018-06-08T22:52:28.954Z,66.00
2018-06-08T22:54:57.498Z,68.23
2018-06-08T22:57:25.989Z,57.33
2018-06-08T22:59:54.465Z,68.70
2018-06-08T23:02:22.952Z,66.37
2018-06-08T23:04:51.458Z,62.57
2018-06-08T23:07:19.976Z,65.43
2018-06-08T23:09:48.477Z,72.73
2018-06-08T23:12:16.970Z,70.77
2018-06-08T23:14:45.471Z,69.80
2018-06-08T23:17:13.935Z,68.20
2018-06-08T23:19:42.448Z,75.10
2018-06-08T23:22:10.903Z,68.10
2018-06-08T23:24:39.369Z,68.53
2018-06-08T23:27:07.829Z,67.40
2018-06-08T23:29:36.353Z,65.80
2018-06-08T23:32:04.808Z,64.60
2018-06-08T23:34:33.316Z,63.90
2018-06-08T23:37:01.771Z,69.27
2018-06-08T23:39:30.256Z,70.20
2018-06-08T23:41:58.712Z,72.90
2018-06-08T23:44:27.173Z,72.10
2018-06-08T23:46:55.724Z,70.40
2018-06-08T23:49:24.384Z,73.13
2018-06-08T23:51:52.820Z,74.73
2018-06-08T23:54:21.300Z,75.63
2018-06-08T23:56:49.780Z,76.97
2018-06-08T23:59:18.280Z,76.53
